Norasia Integra — A8DZ2 — position and weather

sailwx.info

Track history (hours):
 
Tides and Currents Weather Stations Pressure Air Temp Water Temp Dewpoint Dewpoint Depression Visibility Wind Speed Wind Dir Waves Ship Positions

Norasia Integra

Last reported at 2018-Apr-24 12:31 UTC. Time now 2018-Apr-24 12:40 UTC.
Position N 25°10' E 121°45'.

Length 222 m; draft 9.9 m.

Type: Ship. MMSI: 636013289.

Date/timePositionNaut miles runAvg speedWind from/ knotsBaromVisibWave heightAir tempDewpointWater temp
2018-Apr-24 12:31N 25°10' E 121°45'1 1.2
2018-Apr-24 12:00N 25°09' E 121°45'0 0.0
2018-Apr-24 11:29N 25°09' E 121°45'0 0.0
2018-Apr-24 10:59N 25°09' E 121°45'0 0.0
2018-Apr-24 10:29N 25°09' E 121°45'0 0.0
2018-Apr-24 09:59N 25°09' E 121°45'0 0.0
2018-Apr-24 09:29N 25°09' E 121°45'0 0.0
2018-Apr-24 08:58N 25°09' E 121°45'0 0.0
2018-Apr-24 08:28N 25°09' E 121°45'0 0.0
2018-Apr-24 07:58N 25°09' E 121°45'0 0.0
2018-Apr-24 07:28N 25°09' E 121°45'0 0.0
2018-Apr-24 06:57N 25°09' E 121°45'0 0.0
2018-Apr-24 06:30N 25°09' E 121°45'0 0.0
2018-Apr-24 06:00N 25°09' E 121°45'0 0.0
2018-Apr-24 05:30N 25°09' E 121°45'0 0.0
2018-Apr-24 05:00N 25°09' E 121°45'0 0.0
2018-Apr-24 04:29N 25°09' E 121°45'0 0.0
2018-Apr-24 03:53N 25°09' E 121°45'0 0.0
2018-Apr-24 03:29N 25°09' E 121°45'0 0.0
2018-Apr-24 02:59N 25°09' E 121°45'1 1.8
2018-Apr-24 02:31N 25°10' E 121°45'4 8.4
2018-Apr-24 02:00N 25°14' E 121°47'611.8
2018-Apr-24 01:30N 25°16' E 121°53'612.0
2018-Apr-24 00:58N 25°19' E 121°59'715.0
2018-Apr-24 00:30N 25°23' E 122°06'97822.0
2018-Apr-22 03:58N 34°06' E 137°58'1023.3
2018-Apr-22 03:31N 34°10' E 138°09'1223.3
2018-Apr-22 03:00N 34°15' E 138°22'1322.7
2018-Apr-22 02:26N 34°21' E 138°36'922.4
2018-Apr-22 02:00N 34°25' E 138°46'1122.3
2018-Apr-22 01:30N 34°32' E 138°58'1122.4
2018-Apr-22 01:00N 34°41' E 139°06'1721.1
2018-Apr-22 00:11N 34°52' E 139°21'420.0
2018-Apr-22 00:00N 34°54' E 139°25'1019.8
2018-Apr-21 23:30N 35°00' E 139°34'918.6
2018-Apr-21 23:00N 35°06' E 139°43'714.1
2018-Apr-21 22:30N 35°13' E 139°46'611.2
2018-Apr-21 22:00N 35°18' E 139°44'612.8
2018-Apr-21 21:30N 35°24' E 139°43'4 7.2
2018-Apr-21 21:00N 35°28' E 139°42'0 0.7
2018-Apr-21 20:28N 35°28' E 139°42'0 0.0
2018-Apr-21 19:58N 35°28' E 139°42'0 0.0
2018-Apr-21 19:28N 35°28' E 139°42'0 0.0
2018-Apr-21 18:58N 35°28' E 139°42'0 0.0
2018-Apr-21 18:30N 35°28' E 139°42'0 0.0
2018-Apr-21 18:00N 35°28' E 139°42'0 0.0
2018-Apr-21 17:30N 35°28' E 139°42'0 0.0
2018-Apr-21 17:00N 35°28' E 139°42'0 0.0
2018-Apr-21 16:29N 35°28' E 139°42'0 0.0
2018-Apr-21 15:59N 35°28' E 139°42'0 0.0
2018-Apr-21 15:29N 35°28' E 139°42'0 0.0
2018-Apr-21 14:59N 35°28' E 139°42'0 0.0
2018-Apr-21 14:26N 35°28' E 139°42'0 0.0
2018-Apr-21 13:58N 35°28' E 139°42'0 0.0
2018-Apr-21 13:28N 35°28' E 139°42'0 0.0
2018-Apr-21 12:58N 35°28' E 139°42'0 0.0
2018-Apr-21 12:28N 35°28' E 139°42'0 0.0
2018-Apr-21 11:58N 35°28' E 139°42'0 0.0
2018-Apr-21 11:30N 35°28' E 139°42'0 0.1
2018-Apr-21 11:00N 35°28' E 139°42'2 4.9
2018-Apr-21 10:31N 35°27' E 139°44'5 9.5
2018-Apr-21 10:01N 35°29' E 139°50'713.5
2018-Apr-21 09:30N 35°32' E 139°57'612.6
2018-Apr-21 09:00N 35°35' E 140°04'2 2.0
2018-Apr-21 08:14N 35°36' E 140°06'0 0.0
2018-Apr-21 07:56N 35°36' E 140°06'0 0.0
2018-Apr-21 07:26N 35°36' E 140°06'0 0.0
2018-Apr-21 06:55N 35°36' E 140°06'0 0.0
2018-Apr-21 06:25N 35°36' E 140°06'0 0.0
2018-Apr-21 05:55N 35°36' E 140°06'0 0.0
2018-Apr-21 05:25N 35°36' E 140°06'0 0.0
2018-Apr-21 04:55N 35°36' E 140°06'0 0.0
2018-Apr-21 04:30N 35°36' E 140°06'0 0.0
2018-Apr-21 04:00N 35°36' E 140°06'0 0.0
2018-Apr-21 03:30N 35°36' E 140°06'0 0.0
2018-Apr-21 03:00N 35°36' E 140°06'0 0.0
2018-Apr-21 02:29N 35°36' E 140°06'0 0.0
2018-Apr-21 01:59N 35°36' E 140°06'0 0.0
2018-Apr-21 01:29N 35°36' E 140°06'0 0.0
2018-Apr-21 00:59N 35°36' E 140°06'0 0.0
2018-Apr-21 00:29N 35°36' E 140°06'0 0.0
2018-Apr-20 23:58N 35°36' E 140°06'0 0.0
2018-Apr-20 23:28N 35°36' E 140°06'0 0.4
2018-Apr-20 23:00N 35°36' E 140°05'3 6.5
2018-Apr-20 22:30N 35°34' E 140°02'4 8.7
2018-Apr-20 22:01N 35°32' E 139°57'510.0
2018-Apr-20 21:30N 35°34' E 139°51'4 8.7
2018-Apr-20 21:00N 35°36' E 139°47'0 0.2
2018-Apr-20 20:26N 35°36' E 139°47'0 0.0
2018-Apr-20 19:59N 35°36' E 139°47'0 0.0
2018-Apr-20 19:29N 35°36' E 139°47'0 0.0
2018-Apr-20 18:58N 35°36' E 139°47'0 0.0
2018-Apr-20 18:28N 35°36' E 139°47'0 0.0
2018-Apr-20 16:54N 35°36' E 139°47'0 0.0
2018-Apr-20 16:15N 35°36' E 139°47'0 0.0
2018-Apr-20 15:54N 35°36' E 139°47'0 0.0
2018-Apr-20 15:30N 35°36' E 139°47'0 0.0
2018-Apr-20 15:00N 35°36' E 139°47'0 0.0
2018-Apr-20 14:14N 35°36' E 139°47'0 0.0
2018-Apr-20 13:44N 35°36' E 139°47'0 0.0
2018-Apr-20 13:26N 35°36' E 139°47'0 0.0
2018-Apr-20 12:59N 35°36' E 139°47'0 0.0
2018-Apr-20 12:26N 35°36' E 139°47'0 0.0
2018-Apr-20 11:58N 35°36' E 139°47'0 0.0
2018-Apr-20 10:00N 35°36' E 139°47'0 0.0
2018-Apr-20 09:30N 35°36' E 139°47'0 0.0
2018-Apr-20 08:48N 35°36' E 139°47'0 0.0
2018-Apr-20 08:30N 35°36' E 139°47'0 0.0
2018-Apr-20 08:00N 35°36' E 139°47'0 0.0
2018-Apr-20 07:29N 35°36' E 139°47'0 0.0
2018-Apr-20 06:53N 35°36' E 139°47'0 0.0
2018-Apr-20 06:29N 35°36' E 139°47'0 0.0
2018-Apr-20 05:59N 35°36' E 139°47'0 0.0
2018-Apr-20 05:29N 35°36' E 139°47'0 0.0
2018-Apr-20 04:52N 35°36' E 139°47'0 0.8
2018-Apr-20 04:30N 35°36' E 139°47'4 7.3
2018-Apr-20 04:00N 35°33' E 139°50'3 6.2
2018-Apr-20 03:30N 35°31' E 139°53'3 6.1
2018-Apr-20 03:00N 35°28' E 139°51'3 5.8
2018-Apr-20 02:30N 35°26' E 139°49'510.2
2018-Apr-20 02:00N 35°22' E 139°45'510.3
2018-Apr-20 01:30N 35°17' E 139°46'611.3
2018-Apr-20 01:00N 35°11' E 139°47'5 9.0
2018-Apr-20 00:30N 35°07' E 139°46'4 8.7
2018-Apr-20 00:00N 35°03' E 139°44'5 9.2
2018-Apr-19 23:30N 34°58' E 139°42'510.0
2018-Apr-19 23:00N 34°53' E 139°42'510.0
2018-Apr-19 22:29N 34°48' E 139°42'610.3
2018-Apr-19 21:56N 34°43' E 139°43'611.1
2018-Apr-19 21:23N 34°39' E 139°37'513.0
2018-Apr-19 20:58N 34°38' E 139°30'812.9
2018-Apr-19 20:20N 34°36' E 139°21'612.9
2018-Apr-19 19:50N 34°35' E 139°13'413.2
2018-Apr-19 19:31N 34°34' E 139°08'713.0
2018-Apr-19 18:57N 34°31' E 138°60'612.7
2018-Apr-19 18:31N 34°31' E 138°53'812.9
2018-Apr-19 17:52N 34°30' E 138°43'612.7
2018-Apr-19 17:23N 34°29' E 138°35'612.6
2018-Apr-19 16:56N 34°29' E 138°29'612.3
2018-Apr-19 16:28N 34°28' E 138°22'612.2
2018-Apr-19 16:00N 34°28' E 138°15'1011.9
2018-Apr-19 15:10N 34°27' E 138°03'312.1
2018-Apr-19 14:54N 34°27' E 137°59'612.3
2018-Apr-19 14:26N 34°27' E 137°52'1212.3
2018-Apr-19 13:28N 34°28' E 137°38'3411.1
2018-Apr-19 10:25N 34°35' E 136°58'615.6
2018-Apr-19 10:01N 34°39' E 136°51'917.3
2018-Apr-19 09:29N 34°47' E 136°46'816.8
2018-Apr-19 09:00N 34°55' E 136°46'713.7
2018-Apr-19 08:30N 35°01' E 136°50'2 4.2
2018-Apr-19 07:56N 35°02' E 136°47'0 0.0
2018-Apr-19 07:26N 35°02' E 136°47'0 0.0
2018-Apr-19 06:55N 35°02' E 136°47'0 0.0
2018-Apr-19 06:25N 35°02' E 136°47'0 0.0
2018-Apr-19 05:49N 35°02' E 136°47'0 0.0
2018-Apr-19 05:25N 35°02' E 136°47'0 0.0
2018-Apr-19 05:01N 35°02' E 136°47'0 0.0
2018-Apr-19 04:30N 35°02' E 136°47'0 0.0
2018-Apr-19 02:42N 35°02' E 136°47'0 0.0
2018-Apr-19 02:29N 35°02' E 136°47'0 0.0
2018-Apr-19 01:53N 35°02' E 136°47'0 0.0
2018-Apr-19 01:29N 35°02' E 136°47'0 0.0
2018-Apr-19 00:59N 35°02' E 136°47'0 0.0
2018-Apr-19 00:29N 35°02' E 136°47'0 0.0
2018-Apr-18 23:52N 35°02' E 136°47'0 0.0
2018-Apr-18 23:22N 35°02' E 136°47'0 0.0
2018-Apr-18 22:58N 35°02' E 136°47'0 0.0
2018-Apr-18 22:16N 35°02' E 136°47'0 0.0
2018-Apr-18 21:51N 35°02' E 136°47'0 0.0
2018-Apr-18 21:15N 35°02' E 136°47'0 0.0
2018-Apr-18 20:57N 35°02' E 136°47'0 0.0
2018-Apr-18 20:27N 35°02' E 136°47'0 0.0
2018-Apr-18 19:51N 35°02' E 136°47'0 0.0
2018-Apr-18 19:26N 35°02' E 136°47'0 0.0
2018-Apr-18 18:58N 35°02' E 136°47'0 0.0
2018-Apr-18 18:22N 35°02' E 136°47'0 0.0
2018-Apr-18 17:33N 35°02' E 136°47'0 0.0
2018-Apr-18 17:27N 35°02' E 136°47'0 0.0
2018-Apr-18 16:57N 35°02' E 136°47'0 0.0
2018-Apr-18 16:30N 35°02' E 136°47'2 3.1
2018-Apr-18 16:00N 35°00' E 136°47'612.2
2018-Apr-18 15:30N 34°54' E 136°46'816.2
2018-Apr-18 15:00N 34°46' E 136°47'96021.3
2018-Apr-16 18:01N 25°33' E 121°40'024.1
2018-Apr-16 18:00N 25°32' E 121°40'1924.8
2018-Apr-16 17:15N 25°25' E 121°21'624.4
2018-Apr-16 17:00N 25°23' E 121°15'1224.1
2018-Apr-16 16:29N 25°18' E 121°02'13922.9
2018-Apr-16 10:26N 24°22' E 118°43'1220.8
2018-Apr-16 09:51N 24°17' E 118°30'719.1
2018-Apr-16 09:30N 24°15' E 118°24'816.1
2018-Apr-16 08:59N 24°16' E 118°15'612.0
2018-Apr-16 08:30N 24°20' E 118°10'510.9
2018-Apr-16 08:00N 24°24' E 118°06'510.9
2018-Apr-16 07:30N 24°29' E 118°03'3 2.5
2018-Apr-16 06:28N 24°31' E 118°05'0 0.0
2018-Apr-16 05:43N 24°31' E 118°05'0 0.0
2018-Apr-16 05:30N 24°31' E 118°05'0 0.0
2018-Apr-16 04:57N 24°31' E 118°05'0 0.0
2018-Apr-16 04:27N 24°31' E 118°05'0 0.0
2018-Apr-16 03:57N 24°31' E 118°05'0 0.0
2018-Apr-16 03:26N 24°31' E 118°05'0 0.0
2018-Apr-16 02:50N 24°31' E 118°05'0 0.0
2018-Apr-16 02:26N 24°31' E 118°05'0 0.0
2018-Apr-16 01:56N 24°31' E 118°05'0 0.0
2018-Apr-16 01:07N 24°31' E 118°05'0 0.0
2018-Apr-16 00:55N 24°31' E 118°05'0 0.0
2018-Apr-16 00:25N 24°31' E 118°05'0 0.0
2018-Apr-15 23:49N 24°31' E 118°05'0 0.0
2018-Apr-15 23:25N 24°31' E 118°05'0 0.0
2018-Apr-15 22:54N 24°31' E 118°05'0 0.0
2018-Apr-15 22:24N 24°31' E 118°05'0 0.0
2018-Apr-15 22:00N 24°31' E 118°05'0 0.0
2018-Apr-15 21:30N 24°31' E 118°05'0 0.0
2018-Apr-15 21:00N 24°31' E 118°05'2 4.5
2018-Apr-15 20:30N 24°29' E 118°04'4 8.2
2018-Apr-15 20:00N 24°25' E 118°05'5 9.2
2018-Apr-15 19:30N 24°22' E 118°08'510.1
2018-Apr-15 19:00N 24°19' E 118°13'3 5.3
2018-Apr-15 18:28N 24°16' E 118°15'6 9.0
2018-Apr-15 17:50N 24°12' E 118°19'2 6.5
2018-Apr-15 17:30N 24°10' E 118°20'2 4.8
2018-Apr-15 16:59N 24°07' E 118°19'4 7.0
2018-Apr-15 16:26N 24°04' E 118°19'  
Track history (hours):
 
Tides and Currents Weather Stations Pressure Air Temp Water Temp Dewpoint Dewpoint Depression Visibility Wind Speed Wind Dir Waves Ship Positions

Norasia Integra

Last reported at 2018-Apr-24 12:31 UTC. Time now 2018-Apr-24 12:40 UTC.
Position N 25°10' E 121°45'.

Length 222 m; draft 9.9 m.

Type: Ship. MMSI: 636013289.

Date/timePositionNaut miles runAvg speedWind from/ knotsBaromVisibWave heightAir tempDewpointWater temp
2018-Apr-24 12:31N 25°10' E 121°45'1 1.2
2018-Apr-24 12:00N 25°09' E 121°45'0 0.0
2018-Apr-24 11:29N 25°09' E 121°45'0 0.0
2018-Apr-24 10:59N 25°09' E 121°45'0 0.0
2018-Apr-24 10:29N 25°09' E 121°45'0 0.0
2018-Apr-24 09:59N 25°09' E 121°45'0 0.0
2018-Apr-24 09:29N 25°09' E 121°45'0 0.0
2018-Apr-24 08:58N 25°09' E 121°45'0 0.0
2018-Apr-24 08:28N 25°09' E 121°45'0 0.0
2018-Apr-24 07:58N 25°09' E 121°45'0 0.0
2018-Apr-24 07:28N 25°09' E 121°45'0 0.0
2018-Apr-24 06:57N 25°09' E 121°45'0 0.0
2018-Apr-24 06:30N 25°09' E 121°45'0 0.0
2018-Apr-24 06:00N 25°09' E 121°45'0 0.0
2018-Apr-24 05:30N 25°09' E 121°45'0 0.0
2018-Apr-24 05:00N 25°09' E 121°45'0 0.0
2018-Apr-24 04:29N 25°09' E 121°45'0 0.0
2018-Apr-24 03:53N 25°09' E 121°45'0 0.0
2018-Apr-24 03:29N 25°09' E 121°45'0 0.0
2018-Apr-24 02:59N 25°09' E 121°45'1 1.8
2018-Apr-24 02:31N 25°10' E 121°45'4 8.4
2018-Apr-24 02:00N 25°14' E 121°47'611.8
2018-Apr-24 01:30N 25°16' E 121°53'612.0
2018-Apr-24 00:58N 25°19' E 121°59'715.0
2018-Apr-24 00:30N 25°23' E 122°06'97822.0
2018-Apr-22 03:58N 34°06' E 137°58'1023.3
2018-Apr-22 03:31N 34°10' E 138°09'1223.3
2018-Apr-22 03:00N 34°15' E 138°22'1322.7
2018-Apr-22 02:26N 34°21' E 138°36'922.4
2018-Apr-22 02:00N 34°25' E 138°46'1122.3
2018-Apr-22 01:30N 34°32' E 138°58'1122.4
2018-Apr-22 01:00N 34°41' E 139°06'1721.1
2018-Apr-22 00:11N 34°52' E 139°21'420.0
2018-Apr-22 00:00N 34°54' E 139°25'1019.8
2018-Apr-21 23:30N 35°00' E 139°34'918.6
2018-Apr-21 23:00N 35°06' E 139°43'714.1
2018-Apr-21 22:30N 35°13' E 139°46'611.2
2018-Apr-21 22:00N 35°18' E 139°44'612.8
2018-Apr-21 21:30N 35°24' E 139°43'4 7.2
2018-Apr-21 21:00N 35°28' E 139°42'0 0.7
2018-Apr-21 20:28N 35°28' E 139°42'0 0.0
2018-Apr-21 19:58N 35°28' E 139°42'0 0.0
2018-Apr-21 19:28N 35°28' E 139°42'0 0.0
2018-Apr-21 18:58N 35°28' E 139°42'0 0.0
2018-Apr-21 18:30N 35°28' E 139°42'0 0.0
2018-Apr-21 18:00N 35°28' E 139°42'0 0.0
2018-Apr-21 17:30N 35°28' E 139°42'0 0.0
2018-Apr-21 17:00N 35°28' E 139°42'0 0.0
2018-Apr-21 16:29N 35°28' E 139°42'0 0.0
2018-Apr-21 15:59N 35°28' E 139°42'0 0.0
2018-Apr-21 15:29N 35°28' E 139°42'0 0.0
2018-Apr-21 14:59N 35°28' E 139°42'0 0.0
2018-Apr-21 14:26N 35°28' E 139°42'0 0.0
2018-Apr-21 13:58N 35°28' E 139°42'0 0.0
2018-Apr-21 13:28N 35°28' E 139°42'0 0.0
2018-Apr-21 12:58N 35°28' E 139°42'0 0.0
2018-Apr-21 12:28N 35°28' E 139°42'0 0.0
2018-Apr-21 11:58N 35°28' E 139°42'0 0.0
2018-Apr-21 11:30N 35°28' E 139°42'0 0.1
2018-Apr-21 11:00N 35°28' E 139°42'2 4.9
2018-Apr-21 10:31N 35°27' E 139°44'5 9.5
2018-Apr-21 10:01N 35°29' E 139°50'713.5
2018-Apr-21 09:30N 35°32' E 139°57'612.6
2018-Apr-21 09:00N 35°35' E 140°04'2 2.0
2018-Apr-21 08:14N 35°36' E 140°06'0 0.0
2018-Apr-21 07:56N 35°36' E 140°06'0 0.0
2018-Apr-21 07:26N 35°36' E 140°06'0 0.0
2018-Apr-21 06:55N 35°36' E 140°06'0 0.0
2018-Apr-21 06:25N 35°36' E 140°06'0 0.0
2018-Apr-21 05:55N 35°36' E 140°06'0 0.0
2018-Apr-21 05:25N 35°36' E 140°06'0 0.0
2018-Apr-21 04:55N 35°36' E 140°06'0 0.0
2018-Apr-21 04:30N 35°36' E 140°06'0 0.0
2018-Apr-21 04:00N 35°36' E 140°06'0 0.0
2018-Apr-21 03:30N 35°36' E 140°06'0 0.0
2018-Apr-21 03:00N 35°36' E 140°06'0 0.0
2018-Apr-21 02:29N 35°36' E 140°06'0 0.0
2018-Apr-21 01:59N 35°36' E 140°06'0 0.0
2018-Apr-21 01:29N 35°36' E 140°06'0 0.0
2018-Apr-21 00:59N 35°36' E 140°06'0 0.0
2018-Apr-21 00:29N 35°36' E 140°06'0 0.0
2018-Apr-20 23:58N 35°36' E 140°06'0 0.0
2018-Apr-20 23:28N 35°36' E 140°06'0 0.4
2018-Apr-20 23:00N 35°36' E 140°05'3 6.5
2018-Apr-20 22:30N 35°34' E 140°02'4 8.7
2018-Apr-20 22:01N 35°32' E 139°57'510.0
2018-Apr-20 21:30N 35°34' E 139°51'4 8.7
2018-Apr-20 21:00N 35°36' E 139°47'0 0.2
2018-Apr-20 20:26N 35°36' E 139°47'0 0.0
2018-Apr-20 19:59N 35°36' E 139°47'0 0.0
2018-Apr-20 19:29N 35°36' E 139°47'0 0.0
2018-Apr-20 18:58N 35°36' E 139°47'0 0.0
2018-Apr-20 18:28N 35°36' E 139°47'0 0.0
2018-Apr-20 16:54N 35°36' E 139°47'0 0.0
2018-Apr-20 16:15N 35°36' E 139°47'0 0.0
2018-Apr-20 15:54N 35°36' E 139°47'0 0.0
2018-Apr-20 15:30N 35°36' E 139°47'0 0.0
2018-Apr-20 15:00N 35°36' E 139°47'0 0.0
2018-Apr-20 14:14N 35°36' E 139°47'0 0.0
2018-Apr-20 13:44N 35°36' E 139°47'0 0.0
2018-Apr-20 13:26N 35°36' E 139°47'0 0.0
2018-Apr-20 12:59N 35°36' E 139°47'0 0.0
2018-Apr-20 12:26N 35°36' E 139°47'0 0.0
2018-Apr-20 11:58N 35°36' E 139°47'0 0.0
2018-Apr-20 10:00N 35°36' E 139°47'0 0.0
2018-Apr-20 09:30N 35°36' E 139°47'0 0.0
2018-Apr-20 08:48N 35°36' E 139°47'0 0.0
2018-Apr-20 08:30N 35°36' E 139°47'0 0.0
2018-Apr-20 08:00N 35°36' E 139°47'0 0.0
2018-Apr-20 07:29N 35°36' E 139°47'0 0.0
2018-Apr-20 06:53N 35°36' E 139°47'0 0.0
2018-Apr-20 06:29N 35°36' E 139°47'0 0.0
2018-Apr-20 05:59N 35°36' E 139°47'0 0.0
2018-Apr-20 05:29N 35°36' E 139°47'0 0.0
2018-Apr-20 04:52N 35°36' E 139°47'0 0.8
2018-Apr-20 04:30N 35°36' E 139°47'4 7.3
2018-Apr-20 04:00N 35°33' E 139°50'3 6.2
2018-Apr-20 03:30N 35°31' E 139°53'3 6.1
2018-Apr-20 03:00N 35°28' E 139°51'3 5.8
2018-Apr-20 02:30N 35°26' E 139°49'510.2
2018-Apr-20 02:00N 35°22' E 139°45'510.3
2018-Apr-20 01:30N 35°17' E 139°46'611.3
2018-Apr-20 01:00N 35°11' E 139°47'5 9.0
2018-Apr-20 00:30N 35°07' E 139°46'4 8.7
2018-Apr-20 00:00N 35°03' E 139°44'5 9.2
2018-Apr-19 23:30N 34°58' E 139°42'510.0
2018-Apr-19 23:00N 34°53' E 139°42'510.0
2018-Apr-19 22:29N 34°48' E 139°42'610.3
2018-Apr-19 21:56N 34°43' E 139°43'611.1
2018-Apr-19 21:23N 34°39' E 139°37'513.0
2018-Apr-19 20:58N 34°38' E 139°30'812.9
2018-Apr-19 20:20N 34°36' E 139°21'612.9
2018-Apr-19 19:50N 34°35' E 139°13'413.2
2018-Apr-19 19:31N 34°34' E 139°08'713.0
2018-Apr-19 18:57N 34°31' E 138°60'612.7
2018-Apr-19 18:31N 34°31' E 138°53'812.9
2018-Apr-19 17:52N 34°30' E 138°43'612.7
2018-Apr-19 17:23N 34°29' E 138°35'612.6
2018-Apr-19 16:56N 34°29' E 138°29'612.3
2018-Apr-19 16:28N 34°28' E 138°22'612.2
2018-Apr-19 16:00N 34°28' E 138°15'1011.9
2018-Apr-19 15:10N 34°27' E 138°03'312.1
2018-Apr-19 14:54N 34°27' E 137°59'612.3
2018-Apr-19 14:26N 34°27' E 137°52'1212.3
2018-Apr-19 13:28N 34°28' E 137°38'3411.1
2018-Apr-19 10:25N 34°35' E 136°58'615.6
2018-Apr-19 10:01N 34°39' E 136°51'917.3
2018-Apr-19 09:29N 34°47' E 136°46'816.8
2018-Apr-19 09:00N 34°55' E 136°46'713.7
2018-Apr-19 08:30N 35°01' E 136°50'2 4.2
2018-Apr-19 07:56N 35°02' E 136°47'0 0.0
2018-Apr-19 07:26N 35°02' E 136°47'0 0.0
2018-Apr-19 06:55N 35°02' E 136°47'0 0.0
2018-Apr-19 06:25N 35°02' E 136°47'0 0.0
2018-Apr-19 05:49N 35°02' E 136°47'0 0.0
2018-Apr-19 05:25N 35°02' E 136°47'0 0.0
2018-Apr-19 05:01N 35°02' E 136°47'0 0.0
2018-Apr-19 04:30N 35°02' E 136°47'0 0.0
2018-Apr-19 02:42N 35°02' E 136°47'0 0.0
2018-Apr-19 02:29N 35°02' E 136°47'0 0.0
2018-Apr-19 01:53N 35°02' E 136°47'0 0.0
2018-Apr-19 01:29N 35°02' E 136°47'0 0.0
2018-Apr-19 00:59N 35°02' E 136°47'0 0.0
2018-Apr-19 00:29N 35°02' E 136°47'0 0.0
2018-Apr-18 23:52N 35°02' E 136°47'0 0.0
2018-Apr-18 23:22N 35°02' E 136°47'0 0.0
2018-Apr-18 22:58N 35°02' E 136°47'0 0.0
2018-Apr-18 22:16N 35°02' E 136°47'0 0.0
2018-Apr-18 21:51N 35°02' E 136°47'0 0.0
2018-Apr-18 21:15N 35°02' E 136°47'0 0.0
2018-Apr-18 20:57N 35°02' E 136°47'0 0.0
2018-Apr-18 20:27N 35°02' E 136°47'0 0.0
2018-Apr-18 19:51N 35°02' E 136°47'0 0.0
2018-Apr-18 19:26N 35°02' E 136°47'0 0.0
2018-Apr-18 18:58N 35°02' E 136°47'0 0.0
2018-Apr-18 18:22N 35°02' E 136°47'0 0.0
2018-Apr-18 17:33N 35°02' E 136°47'0 0.0
2018-Apr-18 17:27N 35°02' E 136°47'0 0.0
2018-Apr-18 16:57N 35°02' E 136°47'0 0.0
2018-Apr-18 16:30N 35°02' E 136°47'2 3.1
2018-Apr-18 16:00N 35°00' E 136°47'612.2
2018-Apr-18 15:30N 34°54' E 136°46'816.2
2018-Apr-18 15:00N 34°46' E 136°47'96021.3
2018-Apr-16 18:01N 25°33' E 121°40'024.1
2018-Apr-16 18:00N 25°32' E 121°40'1924.8
2018-Apr-16 17:15N 25°25' E 121°21'624.4
2018-Apr-16 17:00N 25°23' E 121°15'1224.1
2018-Apr-16 16:29N 25°18' E 121°02'13922.9
2018-Apr-16 10:26N 24°22' E 118°43'1220.8
2018-Apr-16 09:51N 24°17' E 118°30'719.1
2018-Apr-16 09:30N 24°15' E 118°24'816.1
2018-Apr-16 08:59N 24°16' E 118°15'612.0
2018-Apr-16 08:30N 24°20' E 118°10'510.9
2018-Apr-16 08:00N 24°24' E 118°06'510.9
2018-Apr-16 07:30N 24°29' E 118°03'3 2.5
2018-Apr-16 06:28N 24°31' E 118°05'0 0.0
2018-Apr-16 05:43N 24°31' E 118°05'0 0.0
2018-Apr-16 05:30N 24°31' E 118°05'0 0.0
2018-Apr-16 04:57N 24°31' E 118°05'0 0.0
2018-Apr-16 04:27N 24°31' E 118°05'0 0.0
2018-Apr-16 03:57N 24°31' E 118°05'0 0.0
2018-Apr-16 03:26N 24°31' E 118°05'0 0.0
2018-Apr-16 02:50N 24°31' E 118°05'0 0.0
2018-Apr-16 02:26N 24°31' E 118°05'0 0.0
2018-Apr-16 01:56N 24°31' E 118°05'0 0.0
2018-Apr-16 01:07N 24°31' E 118°05'0 0.0
2018-Apr-16 00:55N 24°31' E 118°05'0 0.0
2018-Apr-16 00:25N 24°31' E 118°05'0 0.0
2018-Apr-15 23:49N 24°31' E 118°05'0 0.0
2018-Apr-15 23:25N 24°31' E 118°05'0 0.0
2018-Apr-15 22:54N 24°31' E 118°05'0 0.0
2018-Apr-15 22:24N 24°31' E 118°05'0 0.0
2018-Apr-15 22:00N 24°31' E 118°05'0 0.0
2018-Apr-15 21:30N 24°31' E 118°05'0 0.0
2018-Apr-15 21:00N 24°31' E 118°05'2 4.5
2018-Apr-15 20:30N 24°29' E 118°04'4 8.2
2018-Apr-15 20:00N 24°25' E 118°05'5 9.2
2018-Apr-15 19:30N 24°22' E 118°08'510.1
2018-Apr-15 19:00N 24°19' E 118°13'3 5.3
2018-Apr-15 18:28N 24°16' E 118°15'6 9.0
2018-Apr-15 17:50N 24°12' E 118°19'2 6.5
2018-Apr-15 17:30N 24°10' E 118°20'2 4.8
2018-Apr-15 16:59N 24°07' E 118°19'4 7.0
2018-Apr-15 16:26N 24°04' E 118°19'  

Dump ship's entire track history